createdAt,value
2023-05-05T00:01:08.961Z,8.38
2023-05-05T00:03:35.829Z,8.37
2023-05-05T00:06:03.240Z,8.41
2023-05-05T00:08:29.949Z,8.52
2023-05-05T00:10:57.558Z,8.54
2023-05-05T00:13:24.689Z,8.47
2023-05-05T00:15:53.468Z,8.40
2023-05-05T00:18:21.525Z,8.37
2023-05-05T00:20:48.510Z,8.41
2023-05-05T00:23:16.483Z,8.39
2023-05-05T00:25:43.206Z,8.39
2023-05-05T00:28:09.946Z,8.34
2023-05-05T00:30:37.416Z,8.44
2023-05-05T00:33:04.343Z,8.48
2023-05-05T00:35:31.121Z,8.45
2023-05-05T00:37:58.384Z,8.44
2023-05-05T00:40:25.292Z,8.44
2023-05-05T00:42:52.296Z,8.45
2023-05-05T00:45:20.088Z,8.46
2023-05-05T00:47:53.593Z,8.47
2023-05-05T00:50:24.069Z,8.60
2023-05-05T00:52:53.038Z,8.67
2023-05-05T00:55:20.529Z,8.60
2023-05-05T00:57:48.593Z,8.51
2023-05-05T01:00:16.732Z,8.48
2023-05-05T01:02:44.320Z,8.44
2023-05-05T01:05:13.693Z,8.45
2023-05-05T01:07:43.585Z,8.42
2023-05-05T01:10:46.949Z,8.36
2023-05-05T01:13:32.371Z,8.37
2023-05-05T01:16:09.331Z,8.30
2023-05-05T01:18:45.843Z,8.27
2023-05-05T01:21:28.893Z,8.26
2023-05-05T01:23:58.419Z,8.23
2023-05-05T01:26:47.915Z,8.19
2023-05-05T01:29:31.010Z,8.16
2023-05-05T01:32:05.127Z,8.13
2023-05-05T01:34:39.097Z,8.03
2023-05-05T01:37:19.015Z,7.95
2023-05-05T01:39:51.688Z,7.89
2023-05-05T01:42:19.056Z,7.85
2023-05-05T01:44:47.752Z,7.83
2023-05-05T01:47:18.740Z,7.80
2023-05-05T01:49:47.269Z,7.87
2023-05-05T01:52:16.130Z,7.91
2023-05-05T01:54:47.028Z,7.86
2023-05-05T01:57:15.160Z,7.86
2023-05-05T01:59:42.464Z,7.87
2023-05-05T02:02:12.044Z,7.85
2023-05-05T02:04:43.582Z,7.88
2023-05-05T02:07:12.669Z,7.91
2023-05-05T02:09:40.736Z,7.88
2023-05-05T02:12:09.028Z,7.86
2023-05-05T02:14:37.205Z,7.85
2023-05-05T02:17:04.422Z,7.89
2023-05-05T02:19:39.397Z,7.78
2023-05-05T02:22:06.526Z,7.76
2023-05-05T02:24:33.540Z,7.81
2023-05-05T02:27:03.804Z,7.86
2023-05-05T02:29:41.885Z,7.86
2023-05-05T02:32:14.594Z,7.81
2023-05-05T02:34:43.532Z,7.83
2023-05-05T02:37:15.916Z,7.83
2023-05-05T02:39:58.472Z,7.88
2023-05-05T02:42:32.129Z,7.90
2023-05-05T02:45:04.604Z,7.92
2023-05-05T02:47:36.487Z,7.81
2023-05-05T02:50:05.253Z,7.81
2023-05-05T02:52:34.044Z,7.79
2023-05-05T02:55:01.753Z,7.79
2023-05-05T02:57:38.302Z,7.80
2023-05-05T03:00:16.794Z,7.88
2023-05-05T03:02:54.125Z,7.90
2023-05-05T03:05:24.206Z,7.90
2023-05-05T03:08:02.988Z,7.91
2023-05-05T03:10:36.379Z,7.94
2023-05-05T03:13:06.866Z,8.01
2023-05-05T03:15:43.475Z,8.12
2023-05-05T03:18:12.166Z,8.11
2023-05-05T03:20:43.964Z,8.08
2023-05-05T03:23:13.372Z,8.07
2023-05-05T03:25:46.711Z,8.07
2023-05-05T03:28:25.695Z,8.06
2023-05-05T03:30:53.095Z,7.97
2023-05-05T03:33:20.149Z,7.97
2023-05-05T03:35:46.956Z,7.99
2023-05-05T03:38:14.220Z,8.02
2023-05-05T03:40:44.546Z,8.05
2023-05-05T03:43:15.904Z,7.93
2023-05-05T03:45:42.928Z,7.85
2023-05-05T03:48:10.686Z,7.87
2023-05-05T03:50:39.114Z,7.73
2023-05-05T03:53:05.944Z,7.65
2023-05-05T03:55:32.851Z,7.56
2023-05-05T03:57:59.449Z,7.56
2023-05-05T04:00:26.419Z,7.54
2023-05-05T04:02:53.481Z,7.56
2023-05-05T04:05:20.369Z,7.60
2023-05-05T04:07:47.075Z,7.70
2023-05-05T04:10:14.849Z,7.74
2023-05-05T04:12:41.630Z,7.78
2023-05-05T04:15:08.887Z,7.76
2023-05-05T04:17:36.136Z,7.81
2023-05-05T04:20:03.228Z,7.84
2023-05-05T04:22:31.772Z,7.85
2023-05-05T04:24:58.933Z,7.91
2023-05-05T04:27:26.232Z,7.95
2023-05-05T04:29:53.658Z,8.06
2023-05-05T04:32:20.345Z,8.18
2023-05-05T04:34:48.437Z,8.37
2023-05-05T04:37:15.958Z,8.52
2023-05-05T04:39:42.960Z,8.69
2023-05-05T04:42:10.237Z,8.89
2023-05-05T04:44:36.921Z,9.04
2023-05-05T04:47:04.303Z,9.07
2023-05-05T04:49:32.147Z,9.17
2023-05-05T04:51:58.846Z,9.22
2023-05-05T04:54:25.979Z,9.29
2023-05-05T04:56:52.860Z,9.36
2023-05-05T04:59:19.413Z,9.47
2023-05-05T05:01:46.709Z,9.59
2023-05-05T05:04:13.886Z,9.76
2023-05-05T05:06:40.651Z,9.91
2023-05-05T05:09:07.369Z,10.02
2023-05-05T05:11:33.946Z,10.17
2023-05-05T05:14:00.594Z,10.34
2023-05-05T05:16:27.360Z,10.48
2023-05-05T05:18:54.874Z,10.59
2023-05-05T05:21:21.801Z,10.65
2023-05-05T05:23:48.948Z,10.76
2023-05-05T05:26:16.484Z,11.03
2023-05-05T05:28:43.182Z,11.36
2023-05-05T05:31:09.788Z,11.72
2023-05-05T05:33:36.475Z,12.16
2023-05-05T05:36:03.674Z,12.62
2023-05-05T05:38:30.705Z,12.98
2023-05-05T05:41:05.404Z,13.28
2023-05-05T05:43:33.129Z,13.50
2023-05-05T05:45:59.883Z,13.68
2023-05-05T05:48:29.342Z,13.90
2023-05-05T05:50:57.794Z,14.16
2023-05-05T05:53:25.101Z,14.33
2023-05-05T05:55:53.064Z,14.51
2023-05-05T05:58:19.815Z,14.70
2023-05-05T06:00:48.308Z,14.86
2023-05-05T06:03:15.882Z,15.05
2023-05-05T06:05:42.784Z,15.14
2023-05-05T06:08:09.978Z,15.27
2023-05-05T06:10:42.189Z,15.51
2023-05-05T06:13:13.833Z,15.68
2023-05-05T06:15:44.649Z,15.56
2023-05-05T06:18:12.950Z,15.37
2023-05-05T06:20:40.077Z,15.21
2023-05-05T06:23:07.232Z,15.15
2023-05-05T06:25:37.607Z,15.18
2023-05-05T06:28:05.585Z,15.11
2023-05-05T06:30:32.836Z,15.45
2023-05-05T06:32:59.705Z,15.76
2023-05-05T06:35:26.471Z,16.13
2023-05-05T06:37:53.151Z,16.36
2023-05-05T06:40:19.955Z,16.47
2023-05-05T06:42:46.685Z,16.74
2023-05-05T06:45:18.286Z,16.94
2023-05-05T06:47:44.932Z,17.14
2023-05-05T06:50:11.704Z,17.23
2023-05-05T06:52:38.424Z,17.43
2023-05-05T06:55:05.395Z,17.78
2023-05-05T06:57:32.120Z,17.76
2023-05-05T06:59:58.664Z,18.24
2023-05-05T07:02:26.815Z,18.37
2023-05-05T07:04:55.613Z,18.56
2023-05-05T07:07:22.539Z,18.87
2023-05-05T07:09:49.247Z,19.05
2023-05-05T07:12:16.045Z,18.95
2023-05-05T07:14:42.617Z,19.22
2023-05-05T07:17:09.320Z,19.49
2023-05-05T07:19:36.086Z,20.18
2023-05-05T07:22:02.865Z,20.06
2023-05-05T07:24:29.538Z,19.83
2023-05-05T07:26:56.350Z,19.71
2023-05-05T07:29:23.115Z,19.80
2023-05-05T07:31:49.736Z,19.80
2023-05-05T07:34:16.387Z,20.09
2023-05-05T07:36:44.159Z,20.30
2023-05-05T07:39:11.076Z,20.10
2023-05-05T07:41:37.880Z,20.13
2023-05-05T07:44:04.660Z,20.19
2023-05-05T07:46:31.501Z,20.33
2023-05-05T07:48:58.150Z,20.40
2023-05-05T07:51:25.087Z,20.40
2023-05-05T07:53:51.690Z,20.44
2023-05-05T07:56:19.301Z,20.26
2023-05-05T07:58:47.437Z,20.40
2023-05-05T08:01:14.214Z,20.67
2023-05-05T08:03:40.997Z,20.66
2023-05-05T08:06:11.864Z,20.72
2023-05-05T08:08:38.437Z,21.09
2023-05-05T08:11:06.488Z,21.12
2023-05-05T08:13:33.510Z,21.28
2023-05-05T08:16:00.568Z,21.47
2023-05-05T08:18:27.459Z,21.53
2023-05-05T08:20:54.726Z,21.51
2023-05-05T08:23:21.868Z,21.84
2023-05-05T08:25:48.588Z,21.77
2023-05-05T08:28:15.282Z,21.72
2023-05-05T08:30:42.720Z,21.83
2023-05-05T08:33:09.419Z,21.98
2023-05-05T08:35:36.414Z,22.07
2023-05-05T08:38:03.065Z,22.27
2023-05-05T08:40:34.071Z,22.39
2023-05-05T08:43:01.459Z,22.50
2023-05-05T08:45:29.562Z,22.44
2023-05-05T08:47:57.387Z,22.62
2023-05-05T08:50:27.516Z,22.71
2023-05-05T08:53:05.213Z,22.59
2023-05-05T08:55:35.545Z,22.66
2023-05-05T08:58:05.742Z,22.32
2023-05-05T09:00:33.435Z,22.69
2023-05-05T09:03:01.627Z,23.06
2023-05-05T09:05:28.521Z,23.02
2023-05-05T09:07:55.250Z,23.06
2023-05-05T09:10:22.144Z,23.33
2023-05-05T09:12:51.032Z,23.39
2023-05-05T09:15:17.948Z,23.44
2023-05-05T09:17:44.933Z,23.82
2023-05-05T09:22:46.977Z,23.40
2023-05-05T09:25:15.668Z,23.41
2023-05-05T09:27:47.173Z,23.35
2023-05-05T09:30:27.080Z,23.66
2023-05-05T09:32:55.180Z,23.89
2023-05-05T09:35:22.785Z,24.04
2023-05-05T09:37:49.675Z,24.33
2023-05-05T09:40:18.342Z,24.45
2023-05-05T09:42:45.175Z,23.97
2023-05-05T09:45:17.777Z,24.25
2023-05-05T09:47:48.501Z,23.69
2023-05-05T09:50:18.987Z,22.52
2023-05-05T09:53:01.543Z,22.19
2023-05-05T09:55:28.542Z,22.07
2023-05-05T09:57:55.286Z,22.14
2023-05-05T10:00:22.264Z,23.15
2023-05-05T10:02:48.854Z,23.72
2023-05-05T10:05:18.741Z,23.99
2023-05-05T10:07:47.527Z,24.19
2023-05-05T10:10:16.891Z,23.93
2023-05-05T10:12:45.894Z,24.35
2023-05-05T10:15:15.129Z,24.55
2023-05-05T10:18:06.179Z,24.63
2023-05-05T10:20:37.081Z,24.59
2023-05-05T10:23:08.076Z,25.02
2023-05-05T10:25:42.129Z,24.98
2023-05-05T10:28:11.822Z,25.33
2023-05-05T10:30:46.046Z,25.82
2023-05-05T10:33:31.793Z,25.86
2023-05-05T10:36:02.627Z,25.71
2023-05-05T10:38:31.133Z,25.38
2023-05-05T10:40:59.502Z,25.68
2023-05-05T10:43:27.707Z,25.64
2023-05-05T10:45:55.261Z,25.88
2023-05-05T10:48:33.069Z,24.91
2023-05-05T10:51:11.446Z,25.35
2023-05-05T10:54:10.659Z,25.60
2023-05-05T10:56:41.194Z,26.13
2023-05-05T10:59:38.980Z,26.03
2023-05-05T11:02:21.378Z,25.78
2023-05-05T11:05:18.214Z,25.01
2023-05-05T11:07:46.333Z,24.63
2023-05-05T11:10:14.476Z,24.35
2023-05-05T11:13:00.072Z,24.99
2023-05-05T11:15:26.894Z,25.63
2023-05-05T11:17:55.057Z,26.23
2023-05-05T11:20:39.554Z,25.97
2023-05-05T11:23:06.531Z,24.98
2023-05-05T11:25:41.039Z,25.60
2023-05-05T11:28:11.912Z,26.72
2023-05-05T11:30:58.055Z,27.30
2023-05-05T11:33:31.467Z,28.30
2023-05-05T11:36:09.077Z,28.23
2023-05-05T11:38:38.789Z,27.78
2023-05-05T11:41:27.359Z,28.19
2023-05-05T11:44:13.063Z,27.16
2023-05-05T11:46:41.157Z,27.45
2023-05-05T11:49:09.426Z,27.84
2023-05-05T11:51:36.594Z,27.48
2023-05-05T11:54:03.299Z,29.02
2023-05-05T11:56:30.065Z,29.43
2023-05-05T11:59:09.116Z,29.38
2023-05-05T12:01:40.979Z,29.96
2023-05-05T12:04:18.077Z,28.59
2023-05-05T12:06:46.149Z,29.00
2023-05-05T12:09:20.547Z,28.53
2023-05-05T12:11:57.211Z,27.89
2023-05-05T12:14:25.076Z,27.24
2023-05-05T12:16:58.474Z,26.51
2023-05-05T12:19:33.135Z,26.34
2023-05-05T12:22:00.930Z,26.18
2023-05-05T12:24:27.776Z,26.45
2023-05-05T12:26:54.475Z,27.37
2023-05-05T12:29:26.094Z,27.77
2023-05-05T12:31:52.945Z,28.78
2023-05-05T12:34:21.298Z,28.13
2023-05-05T12:36:48.219Z,29.32
2023-05-05T12:39:14.808Z,29.90
2023-05-05T12:41:41.604Z,30.34
2023-05-05T12:44:08.246Z,30.91
2023-05-05T12:46:49.158Z,30.38
2023-05-05T12:49:16.869Z,29.44
2023-05-05T12:51:56.999Z,29.18
2023-05-05T12:54:25.074Z,29.57
2023-05-05T12:56:51.670Z,29.88
2023-05-05T12:59:21.662Z,30.51
2023-05-05T13:01:50.082Z,30.71
2023-05-05T13:04:17.721Z,30.11
2023-05-05T13:06:46.217Z,30.14
2023-05-05T13:09:27.011Z,30.26
2023-05-05T13:11:54.751Z,29.22
2023-05-05T13:14:21.596Z,29.91
2023-05-05T13:16:48.469Z,29.97
2023-05-05T13:19:15.370Z,29.18
2023-05-05T13:21:41.996Z,27.88
2023-05-05T13:24:23.630Z,28.93
2023-05-05T13:26:53.161Z,29.04
2023-05-05T13:29:20.097Z,30.01
2023-05-05T13:31:46.954Z,30.82
2023-05-05T13:34:13.808Z,31.04
2023-05-05T13:36:40.376Z,30.49
2023-05-05T13:39:07.283Z,30.23
2023-05-05T13:41:34.042Z,30.00
2023-05-05T13:44:00.941Z,29.63
2023-05-05T13:46:27.512Z,29.64
2023-05-05T13:48:56.720Z,29.06
2023-05-05T13:51:23.742Z,29.34
2023-05-05T13:53:50.347Z,29.59
2023-05-05T13:56:18.142Z,29.03
2023-05-05T13:58:45.051Z,29.36
2023-05-05T14:01:11.774Z,29.42
2023-05-05T14:03:39.542Z,29.30
2023-05-05T14:06:07.473Z,29.38
2023-05-05T14:08:34.351Z,28.95
2023-05-05T14:11:01.924Z,28.74
2023-05-05T14:13:28.754Z,27.83
2023-05-05T14:15:55.554Z,27.59
2023-05-05T14:18:22.886Z,26.91
2023-05-05T14:20:49.732Z,26.45
2023-05-05T14:23:16.260Z,26.50
2023-05-05T14:25:42.870Z,26.06
2023-05-05T14:28:09.584Z,25.94
2023-05-05T14:30:36.427Z,25.96
2023-05-05T14:33:03.391Z,26.35
2023-05-05T14:35:31.206Z,26.49
2023-05-05T14:37:57.888Z,26.46
2023-05-05T14:40:24.499Z,26.11
2023-05-05T14:42:51.067Z,25.75
2023-05-05T14:45:17.777Z,26.04
2023-05-05T14:47:44.743Z,26.04
2023-05-05T14:50:11.565Z,26.05
2023-05-05T14:52:40.320Z,26.34
2023-05-05T14:55:08.082Z,26.13
2023-05-05T14:57:34.879Z,25.71
2023-05-05T15:00:01.549Z,25.14
2023-05-05T15:02:28.503Z,24.59
2023-05-05T15:04:55.501Z,24.46
2023-05-05T15:07:22.739Z,24.46
2023-05-05T15:09:49.386Z,24.76
2023-05-05T15:12:16.204Z,25.46
2023-05-05T15:14:42.816Z,26.35
2023-05-05T15:17:09.508Z,27.48
2023-05-05T15:19:36.047Z,28.18
2023-05-05T15:22:02.906Z,28.91
2023-05-05T15:24:30.072Z,28.85
2023-05-05T15:26:56.934Z,29.17
2023-05-05T15:29:23.595Z,29.34
2023-05-05T15:31:50.243Z,29.66
2023-05-05T15:34:17.005Z,29.32
2023-05-05T15:36:43.551Z,29.30
2023-05-05T15:39:10.415Z,28.59
2023-05-05T15:41:36.985Z,27.76
2023-05-05T15:44:04.917Z,27.94
2023-05-05T15:46:33.257Z,28.06
2023-05-05T15:49:00.123Z,27.99
2023-05-05T15:51:27.492Z,27.75
2023-05-05T15:53:54.180Z,26.91
2023-05-05T15:56:20.831Z,26.33
2023-05-05T15:58:47.497Z,25.69
2023-05-05T16:01:14.145Z,25.75
2023-05-05T16:03:41.166Z,25.45
2023-05-05T16:06:10.005Z,25.67
2023-05-05T16:08:36.976Z,25.84
2023-05-05T16:11:04.392Z,26.19
2023-05-05T16:13:31.081Z,27.25
2023-05-05T16:15:57.697Z,26.07
2023-05-05T16:18:26.841Z,25.33
2023-05-05T16:20:53.493Z,25.17
2023-05-05T16:23:20.184Z,24.53
2023-05-05T16:25:46.748Z,24.51
2023-05-05T16:28:13.330Z,24.19
2023-05-05T16:30:39.936Z,23.74
2023-05-05T16:33:06.845Z,23.48
2023-05-05T16:35:33.619Z,22.96
2023-05-05T16:38:00.399Z,22.83
2023-05-05T16:40:27.153Z,22.27
2023-05-05T16:42:53.864Z,21.87
2023-05-05T16:45:20.490Z,21.64
2023-05-05T16:47:47.387Z,21.71
2023-05-05T16:50:14.029Z,21.55
2023-05-05T16:52:40.584Z,21.30
2023-05-05T16:55:08.101Z,21.27
2023-05-05T16:57:34.892Z,21.26
2023-05-05T17:00:01.531Z,21.11
2023-05-05T17:02:28.313Z,20.91
2023-05-05T17:04:54.915Z,20.50
2023-05-05T17:07:21.526Z,20.35
2023-05-05T17:09:48.346Z,20.22
2023-05-05T17:12:15.136Z,20.25
2023-05-05T17:14:41.854Z,19.95
2023-05-05T17:17:09.468Z,19.53
2023-05-05T17:19:35.990Z,19.37
2023-05-05T17:22:02.542Z,19.37
2023-05-05T17:24:29.100Z,19.41
2023-05-05T17:26:55.755Z,19.32
2023-05-05T17:29:23.426Z,19.33
2023-05-05T17:31:50.717Z,19.19
2023-05-05T17:34:17.501Z,19.26
2023-05-05T17:36:44.225Z,19.37
2023-05-05T17:39:11.406Z,19.38
2023-05-05T17:41:37.999Z,19.27
2023-05-05T17:44:04.842Z,19.28
2023-05-05T17:46:31.690Z,19.35
2023-05-05T17:48:58.493Z,19.42
2023-05-05T17:51:26.191Z,19.34
2023-05-05T17:53:52.983Z,19.16
2023-05-05T17:56:19.544Z,19.14
2023-05-05T17:58:46.151Z,19.05
2023-05-05T18:01:26.465Z,18.97
2023-05-05T18:03:53.339Z,19.06
2023-05-05T18:06:20.121Z,18.96
2023-05-05T18:08:46.868Z,18.77
2023-05-05T18:11:13.456Z,18.54
2023-05-05T18:13:40.124Z,18.59
2023-05-05T18:16:07.165Z,18.69
2023-05-05T18:18:34.162Z,18.54
2023-05-05T18:21:00.735Z,18.55
2023-05-05T18:23:27.359Z,18.27
2023-05-05T18:25:54.093Z,18.02
2023-05-05T18:28:20.873Z,17.94
2023-05-05T18:30:47.434Z,18.76
2023-05-05T18:33:14.089Z,18.67
2023-05-05T18:35:40.926Z,17.52
2023-05-05T18:38:07.489Z,16.00
2023-05-05T18:40:34.272Z,14.20
2023-05-05T18:43:00.932Z,12.80
2023-05-05T18:45:27.550Z,11.88
2023-05-05T18:47:54.135Z,11.50
2023-05-05T18:50:21.043Z,11.56
2023-05-05T18:52:47.769Z,11.26
2023-05-05T18:55:14.349Z,11.32
2023-05-05T18:57:41.014Z,11.35
2023-05-05T19:00:08.008Z,11.37
2023-05-05T19:02:43.008Z,11.24
2023-05-05T19:05:10.265Z,11.22
2023-05-05T19:07:37.489Z,11.09
2023-05-05T19:10:04.719Z,11.24
2023-05-05T19:12:31.531Z,11.16
2023-05-05T19:14:58.258Z,11.12
2023-05-05T19:17:25.128Z,11.17
2023-05-05T19:19:51.750Z,11.09
2023-05-05T19:22:18.381Z,11.02
2023-05-05T19:24:45.167Z,11.01
2023-05-05T19:27:15.534Z,10.91
2023-05-05T19:29:43.202Z,10.76
2023-05-05T19:32:09.867Z,10.72
2023-05-05T19:34:36.613Z,10.78
2023-05-05T19:37:03.328Z,10.77
2023-05-05T19:39:29.910Z,10.85
2023-05-05T19:41:56.504Z,10.87
2023-05-05T19:44:23.720Z,10.89
2023-05-05T19:46:50.548Z,10.92
2023-05-05T19:49:17.091Z,10.91
2023-05-05T19:51:46.249Z,11.02
2023-05-05T19:54:13.408Z,11.03
2023-05-05T19:56:40.516Z,11.09
2023-05-05T19:59:07.326Z,11.13
2023-05-05T20:01:35.047Z,11.12
2023-05-05T20:04:03.270Z,11.08
2023-05-05T20:06:29.893Z,11.02
2023-05-05T20:08:56.531Z,11.05
2023-05-05T20:11:24.749Z,11.03
2023-05-05T20:13:51.731Z,11.10
2023-05-05T20:16:18.596Z,11.23
2023-05-05T20:18:45.267Z,11.24
2023-05-05T20:21:11.969Z,11.32
2023-05-05T20:23:38.574Z,11.35
2023-05-05T20:26:05.380Z,11.37
2023-05-05T20:28:32.168Z,11.47
2023-05-05T20:31:00.524Z,11.56
2023-05-05T20:33:28.667Z,11.60
2023-05-05T20:35:55.438Z,11.65
2023-05-05T20:38:21.997Z,11.74
2023-05-05T20:40:48.588Z,11.74
2023-05-05T20:43:15.162Z,11.83
2023-05-05T20:45:42.111Z,11.90
2023-05-05T20:48:11.092Z,11.97
2023-05-05T20:50:38.694Z,11.86
2023-05-05T20:53:08.016Z,11.88
2023-05-05T20:55:35.217Z,11.84
2023-05-05T20:58:05.038Z,11.79
2023-05-05T21:00:31.637Z,11.77
2023-05-05T21:02:58.512Z,11.80
2023-05-05T21:05:25.823Z,11.79
2023-05-05T21:07:53.863Z,11.77
2023-05-05T21:10:20.952Z,11.79
2023-05-05T21:12:47.557Z,11.72
2023-05-05T21:15:16.512Z,11.66
2023-05-05T21:17:43.359Z,11.61
2023-05-05T21:20:10.716Z,11.58
2023-05-05T21:22:37.527Z,11.59
2023-05-05T21:25:12.536Z,11.57
2023-05-05T21:27:39.232Z,11.55
2023-05-05T21:30:08.518Z,11.59
2023-05-05T21:32:37.605Z,11.60
2023-05-05T21:35:06.172Z,11.62
2023-05-05T21:37:32.916Z,11.68
2023-05-05T21:39:59.530Z,11.67
2023-05-05T21:42:26.786Z,11.66
2023-05-05T21:44:53.775Z,11.66
2023-05-05T21:47:20.585Z,11.57
2023-05-05T21:49:47.293Z,11.70
2023-05-05T21:52:13.870Z,11.65
2023-05-05T21:54:40.893Z,11.67
2023-05-05T21:57:07.455Z,11.64
2023-05-05T21:59:34.336Z,11.71
2023-05-05T22:02:00.864Z,11.62
2023-05-05T22:04:27.805Z,11.62
2023-05-05T22:06:54.339Z,11.59
2023-05-05T22:09:20.902Z,11.61
2023-05-05T22:11:47.703Z,11.57
2023-05-05T22:14:15.352Z,11.57
2023-05-05T22:16:42.510Z,11.55
2023-05-05T22:19:09.300Z,11.52
2023-05-05T22:21:35.984Z,11.43
2023-05-05T22:24:02.730Z,11.41
2023-05-05T22:26:29.313Z,11.33
2023-05-05T22:28:56.326Z,11.20
2023-05-05T22:31:22.900Z,11.18
2023-05-05T22:33:49.601Z,11.16
2023-05-05T22:36:16.364Z,11.10
2023-05-05T22:38:43.078Z,11.04
2023-05-05T22:41:09.790Z,11.08
2023-05-05T22:43:37.015Z,11.04
2023-05-05T22:46:03.673Z,11.07
2023-05-05T22:48:30.261Z,11.05
2023-05-05T22:50:57.266Z,11.04
2023-05-05T22:53:23.972Z,10.99
2023-05-05T22:55:51.672Z,11.00
2023-05-05T22:58:18.376Z,10.91
2023-05-05T23:00:44.988Z,10.91
2023-05-05T23:03:11.727Z,10.83
2023-05-05T23:05:38.263Z,10.79
2023-05-05T23:08:05.393Z,10.71
2023-05-05T23:10:32.243Z,10.67
2023-05-05T23:12:58.855Z,10.69
2023-05-05T23:15:25.518Z,10.73
2023-05-05T23:17:52.115Z,10.66
2023-05-05T23:20:18.782Z,10.59
2023-05-05T23:22:45.352Z,10.54
2023-05-05T23:25:12.322Z,10.53
2023-05-05T23:27:40.035Z,10.55
2023-05-05T23:30:08.667Z,10.55
2023-05-05T23:32:35.282Z,10.54
2023-05-05T23:35:02.073Z,10.59
2023-05-05T23:37:28.655Z,10.54
2023-05-05T23:39:56.386Z,10.59
2023-05-05T23:42:23.127Z,10.53
2023-05-05T23:44:49.700Z,10.52
2023-05-05T23:47:16.432Z,10.48
2023-05-05T23:49:42.938Z,10.42
2023-05-05T23:52:11.103Z,10.37
2023-05-05T23:54:37.735Z,10.29
2023-05-05T23:57:04.489Z,10.23
2023-05-05T23:59:31.081Z,10.33
